Time;durP1;ratioP1;P1;durP2;ratioP2;P2;SDS_P1;SDS_P2;PMS_P1;PMS_P2;Temp;Humidity;BMP_temperature;BMP_pressure;BME280_temperature;BME280_humidity;BME280_pressure;Samples;Min_cycle;Max_cycle;Signal;HPM_P1;HPM_P2
2022/10/20 00:00:37;;;;;;;15.30;8.30;;;;;;;4.49;96.39;99695.96;214456;1302;23733;-72
2022/10/20 00:05:39;;;;;;;15.40;8.60;;;;;;;4.44;96.45;99693.48;214433;1312;24267;-72
2022/10/20 00:10:41;;;;;;;17.50;9.10;;;;;;;4.39;96.43;99689.16;214628;1312;25271;-71
2022/10/20 00:16:02;;;;;;;16.10;9.70;;;;;;;4.39;96.83;99690.02;214447;1306;22520;-71
2022/10/20 00:21:10;;;;;;;24.20;9.90;;;;;;;4.40;97.15;99684.90;214589;1302;22469;-72
2022/10/20 00:26:20;;;;;;;22.60;11.10;;;;;;;4.40;97.00;99690.16;214411;1311;25314;-72
2022/10/20 00:31:23;;;;;;;21.00;10.60;;;;;;;4.41;97.46;99686.85;214366;1310;24243;-73
2022/10/20 00:36:25;;;;;;;20.10;11.10;;;;;;;4.39;97.41;99683.85;214483;1312;22945;-72
2022/10/20 00:41:28;;;;;;;19.40;10.20;;;;;;;4.34;97.26;99681.39;214413;1311;22577;-74
2022/10/20 00:46:38;;;;;;;23.70;11.40;;;;;;;4.24;97.19;99684.50;214531;1312;22495;-73
2022/10/20 00:51:41;;;;;;;;;;;;;;;4.14;97.07;99682.30;214592;1302;22551;-72
2022/10/20 00:56:46;;;;;;;22.90;10.70;;;;;;;4.06;97.20;99679.02;214543;1312;24278;-72
2022/10/20 01:01:48;;;;;;;25.70;12.40;;;;;;;3.99;97.27;99678.08;214455;1312;25256;-73
2022/10/20 01:06:50;;;;;;;24.60;12.20;;;;;;;3.93;97.23;99682.11;214465;1312;25245;-72
2022/10/20 01:12:29;;;;;;;23.60;11.70;;;;;;;3.86;97.29;99677.75;214579;1290;22533;-72
2022/10/20 01:17:59;;;;;;;26.30;11.80;;;;;;;3.78;97.23;99673.35;214500;1312;22607;-72
2022/10/20 01:23:38;;;;;;;22.60;11.20;;;;;;;3.71;97.47;99673.79;214591;1311;26203;-71
2022/10/20 01:28:59;;;;;;;24.10;11.80;;;;;;;3.67;97.57;99677.73;214469;1312;22859;-73
2022/10/20 01:34:12;;;;;;;28.70;12.40;;;;;;;3.61;97.41;99674.30;214555;1310;22491;-73
2022/10/20 01:39:25;;;;;;;26.50;11.80;;;;;;;3.57;97.56;99674.95;214574;1309;22469;-73
2022/10/20 01:44:30;;;;;;;21.50;11.00;;;;;;;3.50;97.21;99672.86;214560;1310;22530;-73
2022/10/20 01:49:32;;;;;;;18.70;10.60;;;;;;;3.41;97.13;99675.78;214683;1312;22522;-73
2022/10/20 01:54:33;;;;;;;18.40;9.60;;;;;;;3.32;97.21;99677.08;214766;1310;25355;-71
2022/10/20 02:00:01;;;;;;;18.20;9.30;;;;;;;3.23;97.23;99679.95;214540;1312;24246;-72
2022/10/20 02:05:44;;;;;;;16.80;9.10;;;;;;;3.15;97.43;99681.88;214658;1310;25490;-71
2022/10/20 02:10:54;;;;;;;16.70;8.20;;;;;;;3.11;97.49;99676.77;214515;1312;111194;-72
2022/10/20 02:15:57;;;;;;;;;;;;;;;3.07;97.30;99678.02;214490;1303;22440;-72
2022/10/20 02:21:01;;;;;;;14.80;7.60;;;;;;;3.05;97.79;99676.45;214551;1311;23101;-73
2022/10/20 02:26:11;;;;;;;15.40;8.90;;;;;;;3.00;97.61;99675.20;214568;1310;23044;-71
2022/10/20 02:31:13;;;;;;;16.80;8.30;;;;;;;2.93;97.51;99679.73;214556;1311;22431;-72
2022/10/20 02:36:18;;;;;;;15.40;7.80;;;;;;;2.86;97.62;99679.83;214643;1312;26423;-72
2022/10/20 02:41:21;;;;;;;16.60;8.70;;;;;;;2.82;97.65;99680.35;214634;1311;22542;-73
2022/10/20 02:46:23;;;;;;;19.90;9.20;;;;;;;2.84;97.92;99674.39;214471;1312;24372;-72
2022/10/20 02:51:24;;;;;;;18.40;9.00;;;;;;;2.87;98.20;99676.11;214444;1311;25361;-72
2022/10/20 02:56:26;;;;;;;14.00;7.90;;;;;;;2.93;98.35;99684.30;214556;1312;25028;-73
2022/10/20 03:01:31;;;;;;;20.00;10.20;;;;;;;3.02;98.66;99684.05;214518;1312;22589;-73
2022/10/20 03:06:33;;;;;;;16.40;8.20;;;;;;;3.09;98.79;99688.93;214507;1311;22482;-71
2022/10/20 03:11:35;;;;;;;15.20;8.80;;;;;;;3.19;99.21;99695.55;214592;1312;22484;-73
2022/10/20 03:16:37;;;;;;;19.00;9.40;;;;;;;3.18;98.55;99692.80;214435;1312;25480;-72
2022/10/20 03:21:38;;;;;;;17.60;9.20;;;;;;;3.10;98.30;99692.67;214398;1312;25219;-72
2022/10/20 03:26:40;;;;;;;16.40;9.00;;;;;;;3.01;98.32;99694.98;214512;1312;22595;-72
2022/10/20 03:31:42;;;;;;;21.30;10.70;;;;;;;2.92;98.15;99692.52;214490;1312;22480;-73
2022/10/20 03:36:44;;;;;;;15.80;9.40;;;;;;;2.84;98.27;99699.83;214537;1310;22573;-72
2022/10/20 03:41:45;;;;;;;16.60;8.80;;;;;;;2.78;98.24;99696.13;214587;1312;22515;-72
2022/10/20 03:46:47;;;;;;;13.40;8.20;;;;;;;2.69;98.12;99689.23;214471;1312;24286;-72
2022/10/20 03:51:49;;;;;;;17.30;8.20;;;;;;;2.57;97.81;99684.49;214565;1305;24002;-74
2022/10/20 03:56:50;;;;;;;15.90;7.80;;;;;;;2.46;97.82;99682.75;214581;1313;22472;-72
2022/10/20 04:01:52;;;;;;;14.80;8.10;;;;;;;2.35;97.76;99687.77;214566;1312;22468;-72
2022/10/20 04:06:54;;;;;;;18.60;8.70;;;;;;;2.24;97.89;99683.91;214581;1310;22990;-71
2022/10/20 04:11:56;;;;;;;16.50;7.60;;;;;;;2.15;97.73;99684.77;214619;1312;25388;-72
2022/10/20 04:16:57;;;;;;;20.60;10.70;;;;;;;2.06;97.65;99681.31;214494;1301;22495;-73
2022/10/20 04:21:59;;;;;;;20.40;9.80;;;;;;;1.98;97.90;99677.81;214654;1312;25420;-72
2022/10/20 04:27:01;;;;;;;26.00;11.40;;;;;;;1.90;97.85;99672.39;214445;1310;24990;-73
2022/10/20 04:32:03;;;;;;;21.30;10.30;;;;;;;1.81;97.69;99677.39;214385;1310;25372;-72
2022/10/20 04:37:05;;;;;;;24.20;12.90;;;;;;;1.71;97.55;99678.91;214441;1310;24410;-72
2022/10/20 04:42:06;;;;;;;23.80;12.70;;;;;;;1.58;97.32;99675.37;214510;1310;24341;-72
2022/10/20 04:47:08;;;;;;;28.70;13.30;;;;;;;1.46;97.15;99679.10;214566;1310;22616;-73
2022/10/20 04:52:10;;;;;;;31.00;12.90;;;;;;;1.35;97.05;99679.23;214513;1310;22594;-72
2022/10/20 04:57:12;;;;;;;21.80;11.30;;;;;;;1.23;96.91;99680.78;214616;1310;23956;-72
2022/10/20 05:02:13;;;;;;;29.80;11.30;;;;;;;1.15;97.23;99676.52;214559;1310;22636;-72
2022/10/20 05:07:15;;;;;;;23.40;9.40;;;;;;;1.10;97.10;99672.48;214526;1310;25266;-72
2022/10/20 05:12:17;;;;;;;21.00;9.30;;;;;;;1.03;97.17;99668.63;214434;1310;25401;-72
2022/10/20 05:17:18;;;;;;;24.60;10.40;;;;;;;0.98;97.46;99670.90;214637;1310;22503;-72
2022/10/20 05:22:20;;;;;;;22.10;9.70;;;;;;;0.94;97.55;99672.33;214661;1310;24467;-72
2022/10/20 05:27:22;;;;;;;21.30;9.90;;;;;;;0.92;97.46;99676.09;214403;1310;23746;-73
2022/10/20 05:32:23;;;;;;;24.00;10.10;;;;;;;0.91;97.82;99682.38;214435;1310;22611;-72
2022/10/20 05:37:25;;;;;;;17.40;9.30;;;;;;;0.93;97.71;99683.04;214423;1310;22500;-72
2022/10/20 05:42:28;;;;;;;22.80;9.00;;;;;;;0.94;97.75;99685.64;214946;1284;24423;-72
2022/10/20 05:47:30;;;;;;;22.80;8.60;;;;;;;0.98;97.98;99689.16;214968;1285;22495;-71
2022/10/20 05:52:33;;;;;;;19.50;9.50;;;;;;;1.03;97.88;99690.39;215069;1284;22540;-72
2022/10/20 05:57:36;;;;;;;21.10;7.70;;;;;;;1.09;98.18;99691.23;215369;1285;22488;-72
2022/10/20 06:02:37;;;;;;;18.50;9.40;;;;;;;1.17;98.38;99694.80;215195;1285;22477;-72
2022/10/20 06:07:40;;;;;;;17.40;9.30;;;;;;;1.27;98.69;99702.48;215442;1283;22470;-72
2022/10/20 06:12:41;;;;;;;19.50;9.70;;;;;;;1.39;98.85;99707.38;215126;1285;22576;-72
2022/10/20 06:17:45;;;;;;;22.00;11.10;;;;;;;1.53;99.20;99721.54;214881;1277;25332;-72
2022/10/20 06:22:47;;;;;;;20.30;10.70;;;;;;;1.70;99.41;99723.45;215396;1278;22844;-72
2022/10/20 06:27:49;;;;;;;22.20;11.50;;;;;;;1.91;99.79;99724.38;215055;1284;23102;-70
2022/10/20 06:32:54;;;;;;;23.50;12.30;;;;;;;2.12;99.97;99725.04;215180;1285;22488;-74
2022/10/20 06:37:56;;;;;;;19.30;10.20;;;;;;;2.31;99.92;99725.98;216101;1283;22518;-72
2022/10/20 06:42:58;;;;;;;19.30;10.70;;;;;;;2.51;99.96;99725.88;215923;1284;24478;-72
2022/10/20 06:47:59;;;;;;;24.70;13.60;;;;;;;2.73;100.00;99727.27;215763;1283;22571;-72
2022/10/20 06:53:01;;;;;;;26.60;15.10;;;;;;;2.95;100.00;99730.92;215538;1277;22621;-72
2022/10/20 06:58:03;;;;;;;31.30;15.90;;;;;;;3.18;100.00;99730.77;215831;1283;99983;-71
2022/10/20 07:03:05;;;;;;;30.40;15.80;;;;;;;3.38;99.99;99731.25;215517;1278;101725;-72
2022/10/20 07:08:07;;;;;;;26.60;13.70;;;;;;;3.61;100.00;99731.70;215216;1285;100336;-71
2022/10/20 07:13:08;;;;;;;40.60;21.70;;;;;;;3.85;100.00;99726.69;215182;1285;101380;-72
2022/10/20 07:18:10;;;;;;;44.90;25.30;;;;;;;4.13;100.00;99726.40;215171;1284;22745;-72
2022/10/20 07:23:12;;;;;;;44.00;26.90;;;;;;;4.35;99.98;99720.06;215140;1277;99647;-73
2022/10/20 07:28:13;;;;;;;51.50;28.00;;;;;;;4.58;100.00;99711.91;215053;1283;99460;-73
2022/10/20 07:33:15;;;;;;;38.60;22.30;;;;;;;4.82;99.95;99710.77;215204;1278;99874;-72
2022/10/20 07:38:17;;;;;;;46.20;25.00;;;;;;;5.02;99.85;99703.92;215067;1280;99623;-73
2022/10/20 07:43:18;;;;;;;30.70;18.20;;;;;;;5.16;99.55;99703.63;214990;1285;100048;-73
2022/10/20 07:48:20;;;;;;;33.90;20.30;;;;;;;5.36;99.76;99705.90;215229;1277;23338;-73
2022/10/20 07:53:22;;;;;;;35.70;19.70;;;;;;;5.58;99.44;99712.02;215140;1283;99569;-73
2022/10/20 07:58:23;;;;;;;33.30;18.20;;;;;;;5.81;99.59;99717.70;216009;1285;99653;-73
2022/10/20 08:03:25;;;;;;;38.20;20.90;;;;;;;6.04;99.25;99710.54;215345;1285;100089;-73
2022/10/20 08:08:27;;;;;;;26.50;15.80;;;;;;;6.27;98.86;99711.01;215006;1283;99770;-74
2022/10/20 08:13:29;;;;;;;35.00;19.10;;;;;;;6.47;98.91;99700.89;215275;1281;99631;-73
2022/10/20 08:18:31;;;;;;;30.80;18.00;;;;;;;6.67;98.63;99698.06;215010;1285;99683;-74
2022/10/20 08:23:40;;;;;;;34.10;18.30;;;;;;;6.87;98.13;99709.83;215240;1284;23908;-72
2022/10/20 08:28:42;;;;;;;29.20;17.50;;;;;;;7.06;97.57;99706.21;214974;1285;99887;-72
2022/10/20 08:33:44;;;;;;;20.80;12.10;;;;;;;7.28;97.20;99703.51;215292;1278;99765;-72
2022/10/20 08:38:53;;;;;;;18.20;10.30;;;;;;;7.53;96.94;99701.90;215233;1281;99765;-73
2022/10/20 08:43:56;;;;;;;19.60;9.10;;;;;;;7.78;96.74;99694.50;215029;1281;101942;-72
2022/10/20 08:48:59;;;;;;;16.20;9.60;;;;;;;8.02;95.92;99692.88;215006;1281;99642;-73
2022/10/20 08:54:02;;;;;;;14.40;9.20;;;;;;;8.22;95.35;99689.21;215288;1284;25397;-72
2022/10/20 08:59:20;;;;;;;12.60;7.50;;;;;;;8.36;94.77;99686.37;215864;1285;99307;-71
2022/10/20 09:04:29;;;;;;;8.50;6.10;;;;;;;8.51;94.16;99680.41;214988;1287;99530;-71
2022/10/20 09:09:32;;;;;;;8.00;5.50;;;;;;;8.58;93.50;99680.79;215125;1285;99331;-71
2022/10/20 09:14:36;;;;;;;11.60;5.20;;;;;;;8.67;93.20;99680.83;215018;1278;99336;-71
2022/10/20 09:19:38;;;;;;;9.40;5.30;;;;;;;8.78;92.30;99682.46;215072;1277;99589;-71
2022/10/20 09:24:42;;;;;;;7.00;4.70;;;;;;;8.91;91.68;99677.83;215145;1277;99312;-71
2022/10/20 09:29:44;;;;;;;8.30;5.20;;;;;;;9.05;91.13;99678.79;215121;1283;22502;-72
2022/10/20 09:34:46;;;;;;;6.80;4.60;;;;;;;9.16;89.78;99682.29;215057;1277;100940;-72
2022/10/20 09:39:55;;;;;;;6.40;4.00;;;;;;;9.35;90.11;99687.19;215210;1285;100450;-71
2022/10/20 09:45:00;;;;;;;6.30;4.50;;;;;;;9.55;89.39;99686.82;215017;1281;99507;-72
2022/10/20 09:50:07;;;;;;;7.40;4.30;;;;;;;9.66;88.59;99682.71;215076;1285;99461;-72
2022/10/20 09:55:24;;;;;;;7.80;5.20;;;;;;;9.74;87.76;99679.77;215104;1285;99312;-73
2022/10/20 10:00:31;;;;;;;6.60;3.90;;;;;;;9.88;87.57;99676.88;216018;1278;25374;-72
2022/10/20 10:05:38;;;;;;;6.80;4.60;;;;;;;10.00;86.85;99678.42;215173;1277;22487;-72
2022/10/20 10:10:43;;;;;;;7.20;4.60;;;;;;;10.09;86.03;99679.40;214906;1291;99420;-72
2022/10/20 10:15:44;;;;;;;7.90;4.70;;;;;;;10.15;85.64;99678.20;215007;1277;99577;-73
2022/10/20 10:20:46;;;;;;;6.70;4.50;;;;;;;10.14;84.73;99674.34;215193;1277;99670;-72
2022/10/20 10:25:49;;;;;;;4.40;3.10;;;;;;;10.17;84.21;99669.15;215822;1277;99475;-73
2022/10/20 10:31:26;;;;;;;7.50;4.30;;;;;;;10.18;83.53;99663.37;215251;1277;99560;-72
2022/10/20 10:36:36;;;;;;;6.40;3.90;;;;;;;10.31;83.31;99662.02;214514;1300;22486;-72
2022/10/20 10:42:15;;;;;;;8.90;4.50;;;;;;;10.37;82.02;99654.29;215264;1292;22503;-72
2022/10/20 10:47:26;;;;;;;8.60;4.20;;;;;;;10.49;82.13;99649.39;215052;1296;99517;-72
2022/10/20 10:52:47;;;;;;;8.90;5.00;;;;;;;10.61;81.72;99651.48;215026;1297;99271;-72
2022/10/20 10:57:52;;;;;;;6.30;4.00;;;;;;;10.65;80.89;99647.85;215615;1285;99475;-72
2022/10/20 11:03:10;;;;;;;5.40;3.70;;;;;;;10.67;80.12;99642.96;215364;1285;100466;-71
2022/10/20 11:08:47;;;;;;;5.10;3.00;;;;;;;10.74;79.51;99633.16;215158;1277;99785;-72
2022/10/20 11:14:25;;;;;;;5.50;3.20;;;;;;;10.83;79.10;99618.85;215166;1284;99419;-72
2022/10/20 11:19:50;;;;;;;5.00;3.40;;;;;;;11.00;78.75;99606.27;215075;1284;99545;-72
2022/10/20 11:25:22;;;;;;;3.50;2.60;;;;;;;11.11;78.31;99600.42;214996;1285;99573;-70
2022/10/20 11:30:26;;;;;;;4.90;3.60;;;;;;;11.16;77.78;99592.80;215253;1281;24256;-71
2022/10/20 11:35:46;;;;;;;5.20;3.30;;;;;;;11.22;77.31;99586.66;215127;1284;102176;-71
2022/10/20 11:40:58;;;;;;;4.20;2.60;;;;;;;11.31;76.63;99573.27;215146;1295;99494;-71
2022/10/20 11:46:09;;;;;;;4.00;2.40;;;;;;;11.38;75.73;99567.46;214986;1285;99399;-73
2022/10/20 11:51:29;;;;;;;3.20;2.10;;;;;;;11.39;75.25;99561.34;215129;1285;99900;-71
2022/10/20 11:56:55;;;;;;;5.00;2.20;;;;;;;11.43;74.88;99552.37;215282;1278;99777;-70
2022/10/20 12:02:34;;;;;;;3.80;2.20;;;;;;;11.53;74.69;99544.70;215668;1281;100518;-71
2022/10/20 12:07:57;;;;;;;4.00;2.40;;;;;;;11.55;73.67;99537.50;215039;1277;100536;-70
2022/10/20 12:14:04;;;;;;;9.80;2.90;;;;;;;11.61;73.13;99534.56;215256;1284;100280;-70
2022/10/20 12:19:16;;;;;;;2.50;1.40;;;;;;;11.71;72.38;99530.13;215045;1278;101477;-71
2022/10/20 12:24:33;;;;;;;2.50;1.40;;;;;;;11.75;71.70;99523.48;214988;1285;25319;-73
2022/10/20 12:29:35;;;;;;;3.00;1.60;;;;;;;11.86;71.50;99517.73;214906;1285;112624;-72
2022/10/20 12:34:41;;;;;;;1.90;1.70;;;;;;;12.02;71.62;99510.29;214967;1278;99478;-73
2022/10/20 12:39:44;;;;;;;2.00;1.20;;;;;;;12.14;70.24;99504.64;215150;1278;99504;-72
2022/10/20 12:44:46;;;;;;;1.70;1.50;;;;;;;12.15;69.05;99501.18;215050;1285;99458;-73
2022/10/20 12:49:58;;;;;;;2.50;1.20;;;;;;;12.20;68.17;99498.09;215119;1278;99606;-72
2022/10/20 12:55:07;;;;;;;1.70;0.90;;;;;;;12.23;67.12;99490.88;215059;1288;99631;-72
2022/10/20 13:00:15;;;;;;;2.00;1.10;;;;;;;12.22;66.22;99485.39;215926;1277;22591;-72
2022/10/20 13:05:17;;;;;;;2.40;1.10;;;;;;;12.21;65.58;99479.91;215114;1285;99552;-72
2022/10/20 13:10:37;;;;;;;3.90;1.40;;;;;;;12.21;66.05;99478.05;215118;1277;99506;-72
2022/10/20 13:15:42;;;;;;;1.80;1.20;;;;;;;12.26;65.72;99470.63;215070;1278;101225;-68
2022/10/20 13:21:21;;;;;;;2.20;0.90;;;;;;;12.28;65.86;99468.79;215196;1277;99856;-70
2022/10/20 13:26:36;;;;;;;0.90;0.80;;;;;;;12.29;65.71;99464.16;215267;1277;99508;-71
2022/10/20 13:31:54;;;;;;;2.70;1.20;;;;;;;12.31;64.84;99459.48;215071;1278;99944;-71
2022/10/20 13:37:04;;;;;;;1.70;1.00;;;;;;;12.33;64.34;99457.45;214913;1277;99912;-71
2022/10/20 13:42:34;;;;;;;1.40;1.10;;;;;;;12.31;63.61;99456.89;215168;1277;22519;-73
2022/10/20 13:47:47;;;;;;;1.60;0.90;;;;;;;12.30;62.58;99457.59;214959;1277;25352;-72
2022/10/20 13:52:56;;;;;;;4.60;1.30;;;;;;;12.27;62.18;99457.84;214701;1284;99982;-74
2022/10/20 13:58:06;;;;;;;5.50;1.20;;;;;;;12.22;62.28;99453.97;215380;1278;99504;-74
2022/10/20 14:03:16;;;;;;;2.60;0.90;;;;;;;12.12;61.39;99450.34;215096;1280;22426;-73
2022/10/20 14:08:18;;;;;;;0.80;0.80;;;;;;;12.01;61.16;99445.11;214711;1309;141918;-73
2022/10/20 14:13:33;;;;;;;1.40;0.60;;;;;;;11.91;61.37;99445.39;214729;1304;22524;-74
2022/10/20 14:18:38;;;;;;;3.80;1.30;;;;;;;11.78;61.39;99441.02;214852;1308;25053;-73
2022/10/20 14:23:43;;;;;;;1.10;0.70;;;;;;;11.66;61.24;99441.42;214734;1303;22467;-73
2022/10/20 14:28:47;;;;;;;1.20;0.80;;;;;;;11.57;61.90;99438.91;214977;1309;22502;-73
2022/10/20 14:33:51;;;;;;;1.50;1.10;;;;;;;11.50;61.98;99430.58;214661;1308;25286;-74
2022/10/20 14:38:57;;;;;;;2.70;0.80;;;;;;;11.42;62.11;99425.43;214774;1307;22920;-73
2022/10/20 14:44:01;;;;;;;2.10;1.20;;;;;;;11.34;62.41;99425.52;214863;1308;22483;-73
2022/10/20 14:49:15;;;;;;;2.80;1.50;;;;;;;11.26;62.20;99424.55;214792;1303;22454;-73
2022/10/20 14:54:20;;;;;;;1.80;1.10;;;;;;;11.18;62.52;99425.99;214591;1309;24461;-73
2022/10/20 14:59:30;;;;;;;3.50;1.50;;;;;;;11.06;62.74;99422.19;214756;1309;22493;-73
2022/10/20 15:04:32;;;;;;;4.40;2.00;;;;;;;10.93;63.50;99415.86;214874;1309;22545;-73
2022/10/20 15:09:39;;;;;;;3.10;1.80;;;;;;;10.79;63.83;99409.80;214769;1304;22467;-73
2022/10/20 15:14:45;;;;;;;4.80;2.30;;;;;;;10.66;64.54;99405.73;214724;1309;23085;-73
2022/10/20 15:19:47;;;;;;;4.90;2.10;;;;;;;10.51;64.98;99403.31;214780;1304;22475;-73
2022/10/20 15:24:49;;;;;;;6.30;2.30;;;;;;;10.34;65.47;99400.48;214645;1309;23052;-73
2022/10/20 15:29:51;;;;;;;2.60;1.90;;;;;;;10.15;66.02;99398.80;214744;1309;22473;-73
2022/10/20 15:34:53;;;;;;;7.50;3.00;;;;;;;9.95;66.30;99399.98;214775;1309;22965;-73
2022/10/20 15:39:55;;;;;;;6.40;2.40;;;;;;;9.72;67.17;99394.27;214669;1309;22489;-72
2022/10/20 15:44:57;;;;;;;5.20;3.00;;;;;;;9.46;67.59;99388.20;214672;1309;23766;-73
2022/10/20 15:49:58;;;;;;;6.90;3.50;;;;;;;9.18;67.90;99373.92;214556;1309;22473;-74
2022/10/20 15:55:21;;;;;;;6.30;3.60;;;;;;;8.94;68.43;99373.71;214477;1310;25252;-73
2022/10/20 16:00:25;;;;;;;5.00;2.80;;;;;;;8.72;69.06;99371.48;214462;1310;24261;-72
2022/10/20 16:05:27;;;;;;;10.70;4.70;;;;;;;8.50;69.35;99368.50;214602;1310;24459;-72
2022/10/20 16:10:29;;;;;;;7.20;3.20;;;;;;;8.29;69.86;99371.11;214335;1310;22482;-73
2022/10/20 16:15:30;;;;;;;6.30;3.90;;;;;;;8.10;70.39;99372.27;214515;1310;22466;-74
2022/10/20 16:20:32;;;;;;;8.50;3.80;;;;;;;7.92;70.76;99372.88;214600;1310;22626;-73
2022/10/20 16:25:37;;;;;;;11.40;4.10;;;;;;;7.73;71.29;99369.79;214413;1310;24243;-73
2022/10/20 16:30:39;;;;;;;15.60;6.60;;;;;;;7.58;71.75;99369.15;214616;1310;22464;-74
2022/10/20 16:35:42;;;;;;;16.80;6.90;;;;;;;7.41;72.18;99371.77;214556;1310;22472;-73
2022/10/20 16:40:56;;;;;;;9.00;4.60;;;;;;;7.26;72.41;99372.65;214557;1310;22506;-73
2022/10/20 16:45:57;;;;;;;17.20;5.60;;;;;;;7.13;72.92;99379.44;214709;1310;24300;-73
2022/10/20 16:51:04;;;;;;;14.80;4.60;;;;;;;7.01;73.55;99384.85;214666;1309;22474;-73
2022/10/20 16:56:06;;;;;;;17.20;5.50;;;;;;;6.87;73.82;99383.52;214611;1285;22466;-73
2022/10/20 17:01:11;;;;;;;14.20;6.20;;;;;;;6.76;74.50;99382.48;214682;1309;25413;-73
2022/10/20 17:06:15;;;;;;;9.60;4.90;;;;;;;6.68;74.86;99384.11;214614;1309;25435;-75
2022/10/20 17:11:21;;;;;;;15.30;5.60;;;;;;;6.57;75.13;99382.73;214644;1309;25343;-73
2022/10/20 17:16:29;;;;;;;12.50;4.60;;;;;;;6.42;75.47;99375.67;214601;1309;22610;-73
2022/10/20 17:21:32;;;;;;;8.80;4.00;;;;;;;6.30;75.83;99380.41;214614;1309;22575;-72
2022/10/20 17:26:34;;;;;;;8.90;4.90;;;;;;;6.22;76.09;99378.28;214520;1309;22485;-73
2022/10/20 17:31:37;;;;;;;10.70;4.90;;;;;;;6.16;76.61;99378.89;214874;1309;22620;-72
2022/10/20 17:36:38;;;;;;;7.90;4.10;;;;;;;6.07;76.63;99372.48;214672;1309;22508;-73
2022/10/20 17:41:41;;;;;;;8.80;4.00;;;;;;;5.99;77.11;99365.64;214600;1302;22711;-73
2022/10/20 17:46:43;;;;;;;9.30;4.10;;;;;;;5.91;77.55;99364.39;214606;1309;25651;-73
2022/10/20 17:51:45;;;;;;;8.00;4.30;;;;;;;5.82;77.73;99361.86;214752;1309;22532;-72
2022/10/20 17:56:49;;;;;;;10.10;5.40;;;;;;;5.74;78.10;99361.40;214706;1310;22494;-72
2022/10/20 18:01:51;;;;;;;11.60;5.90;;;;;;;5.64;78.49;99367.13;214547;1287;22672;-73
2022/10/20 18:06:53;;;;;;;13.50;7.00;;;;;;;5.53;78.84;99365.45;214621;1309;22500;-74
2022/10/20 18:11:55;;;;;;;12.80;6.40;;;;;;;5.44;79.09;99357.86;214692;1309;25344;-72
2022/10/20 18:16:56;;;;;;;18.50;7.90;;;;;;;5.34;79.46;99354.55;214811;1303;22640;-73
2022/10/20 18:21:58;;;;;;;16.90;7.60;;;;;;;5.24;79.69;99344.33;214721;1306;22679;-73
2022/10/20 18:27:00;;;;;;;17.10;7.90;;;;;;;5.15;79.94;99345.17;214669;1309;22725;-73
2022/10/20 18:32:02;;;;;;;14.80;7.50;;;;;;;5.16;80.37;99339.09;214706;1309;22469;-73
2022/10/20 18:37:04;;;;;;;16.10;7.90;;;;;;;5.18;80.57;99338.76;214795;1309;22490;-73
2022/10/20 18:42:06;;;;;;;20.90;8.60;;;;;;;5.19;80.75;99345.02;214524;1308;22476;-72
2022/10/20 18:47:09;;;;;;;17.90;8.70;;;;;;;5.13;80.85;99342.80;214517;1309;22469;-73
2022/10/20 18:52:11;;;;;;;13.90;7.70;;;;;;;5.11;81.03;99343.98;214627;1309;22504;-73
2022/10/20 18:57:13;;;;;;;17.40;9.50;;;;;;;5.09;81.10;99340.93;214641;1304;22511;-75
2022/10/20 19:02:15;;;;;;;19.50;10.30;;;;;;;5.07;81.52;99335.69;214480;1310;25300;-72
2022/10/20 19:07:16;;;;;;;17.90;8.50;;;;;;;5.07;81.82;99332.01;214585;1309;23955;-73
2022/10/20 19:12:18;;;;;;;22.90;9.60;;;;;;;5.05;81.57;99338.53;214759;1309;25326;-72
2022/10/20 19:17:22;;;;;;;19.10;9.30;;;;;;;5.05;81.65;99331.23;214638;1309;22500;-73
2022/10/20 19:22:23;;;;;;;18.60;9.20;;;;;;;4.98;81.72;99329.79;214650;1309;24294;-73
2022/10/20 19:27:31;;;;;;;17.80;8.90;;;;;;;4.90;81.78;99319.09;214526;1309;23910;-73
2022/10/20 19:32:33;;;;;;;16.40;8.90;;;;;;;4.83;82.16;99315.02;214676;1309;25400;-73
2022/10/20 19:37:38;;;;;;;17.70;8.60;;;;;;;4.84;82.43;99305.69;214785;1309;22557;-73
2022/10/20 19:42:40;;;;;;;22.50;11.60;;;;;;;4.81;82.31;99299.79;214601;1309;23862;-73
2022/10/20 19:47:42;;;;;;;16.50;9.60;;;;;;;4.77;82.82;99296.17;214570;1309;22917;-73
2022/10/20 19:52:44;;;;;;;19.10;9.70;;;;;;;4.76;82.60;99291.58;214630;1310;24285;-72
2022/10/20 19:57:46;;;;;;;17.60;9.10;;;;;;;4.69;82.57;99292.20;214611;1311;25383;-73
2022/10/20 20:02:48;;;;;;;20.00;9.00;;;;;;;4.66;82.71;99292.40;214505;1312;24302;-73
2022/10/20 20:07:50;;;;;;;17.20;8.90;;;;;;;4.61;82.82;99290.83;214403;1310;26477;-72
2022/10/20 20:12:51;;;;;;;18.20;9.60;;;;;;;4.60;82.83;99296.48;214497;1311;22671;-73
2022/10/20 20:17:53;;;;;;;16.40;9.20;;;;;;;4.58;83.11;99291.95;214438;1311;25402;-72
2022/10/20 20:22:55;;;;;;;18.10;8.80;;;;;;;4.53;83.32;99290.30;214455;1311;27576;-73
2022/10/20 20:27:57;;;;;;;17.90;9.20;;;;;;;4.48;83.18;99293.30;214636;1312;25486;-72
2022/10/20 20:32:59;;;;;;;19.80;9.20;;;;;;;4.44;83.26;99295.38;214631;1309;23753;-73
2022/10/20 20:38:01;;;;;;;19.50;9.80;;;;;;;4.38;83.35;99294.15;214409;1310;22487;-73
2022/10/20 20:43:03;;;;;;;18.90;9.10;;;;;;;4.34;83.50;99290.71;214425;1310;24012;-72
2022/10/20 20:48:05;;;;;;;19.60;9.90;;;;;;;4.26;83.53;99285.85;214618;1311;22485;-73
2022/10/20 20:53:07;;;;;;;18.70;9.40;;;;;;;4.16;83.67;99284.05;214594;1309;24200;-73
2022/10/20 20:58:08;;;;;;;22.90;11.60;;;;;;;4.11;83.77;99278.38;214631;1309;24301;-73
2022/10/20 21:03:10;;;;;;;23.60;12.20;;;;;;;4.09;84.06;99275.11;214544;1301;22541;-72
2022/10/20 21:08:12;;;;;;;24.00;11.60;;;;;;;4.07;84.08;99268.91;214475;1309;22483;-73
2022/10/20 21:13:19;;;;;;;21.00;11.30;;;;;;;4.01;84.02;99270.64;214518;1310;22481;-73
2022/10/20 21:18:21;;;;;;;18.30;10.40;;;;;;;3.96;84.22;99264.08;214501;1309;25280;-73
2022/10/20 21:23:23;;;;;;;24.20;11.70;;;;;;;3.92;84.50;99259.63;214601;1309;24288;-72
2022/10/20 21:28:24;;;;;;;23.90;11.50;;;;;;;3.90;84.47;99260.27;214549;1310;23048;-73
2022/10/20 21:33:27;;;;;;;21.90;11.30;;;;;;;3.86;84.67;99257.69;214535;1309;25299;-73
2022/10/20 21:38:30;;;;;;;24.50;11.50;;;;;;;3.74;84.32;99256.27;214510;1309;24254;-73
2022/10/20 21:43:34;;;;;;;21.80;10.70;;;;;;;3.61;84.41;99250.67;214792;1309;23369;-73
2022/10/20 21:48:36;;;;;;;23.50;12.20;;;;;;;3.49;84.70;99256.52;214610;1309;25383;-73
2022/10/20 21:53:38;;;;;;;25.80;12.30;;;;;;;3.41;84.91;99251.20;214557;1289;25538;-74
2022/10/20 21:58:40;;;;;;;24.50;12.80;;;;;;;3.36;85.17;99245.52;214600;1312;22536;-74
2022/10/20 22:03:44;;;;;;;25.20;13.30;;;;;;;3.32;85.34;99247.48;214391;1295;25383;-73
2022/10/20 22:08:48;;;;;;;25.00;13.10;;;;;;;3.24;85.18;99250.95;214596;1310;24241;-73
2022/10/20 22:13:51;;;;;;;27.20;13.80;;;;;;;3.16;85.45;99245.98;214595;1309;22497;-73
2022/10/20 22:18:55;;;;;;;31.80;14.70;;;;;;;3.08;85.60;99245.49;214602;1309;23750;-73
2022/10/20 22:23:58;;;;;;;29.50;15.00;;;;;;;2.98;85.62;99244.38;214426;1310;22432;-73
2022/10/20 22:29:01;;;;;;;27.00;12.90;;;;;;;2.89;85.81;99239.19;214591;1310;25336;-73
2022/10/20 22:34:04;;;;;;;29.20;14.00;;;;;;;2.80;86.00;99238.34;214762;1310;25493;-73
2022/10/20 22:39:07;;;;;;;30.70;15.70;;;;;;;2.74;86.14;99234.36;214702;1309;22633;-73
2022/10/20 22:44:09;;;;;;;29.10;14.00;;;;;;;2.67;86.36;99233.70;214608;1309;25329;-72
2022/10/20 22:49:12;;;;;;;31.60;15.10;;;;;;;2.67;86.65;99234.33;214659;1309;24452;-73
2022/10/20 22:54:13;;;;;;;26.20;14.00;;;;;;;2.66;86.75;99224.33;214483;1304;24289;-73
2022/10/20 22:59:15;;;;;;;31.40;14.80;;;;;;;2.62;86.86;99221.37;214384;1298;22611;-73
2022/10/20 23:04:17;;;;;;;23.90;12.90;;;;;;;2.59;86.88;99218.41;214487;1309;22685;-72
2022/10/20 23:09:20;;;;;;;27.30;14.20;;;;;;;2.54;87.09;99208.09;214541;1309;22585;-73
2022/10/20 23:14:24;;;;;;;29.90;17.00;;;;;;;2.53;87.29;99191.63;214738;1309;22534;-72
2022/10/20 23:19:26;;;;;;;35.30;17.50;;;;;;;2.59;87.71;99185.16;214599;1310;22484;-74
2022/10/20 23:24:27;;;;;;;28.40;14.60;;;;;;;2.61;87.44;99187.58;214732;1309;25253;-72
2022/10/20 23:29:30;;;;;;;34.40;15.60;;;;;;;2.57;87.66;99181.77;214554;1309;22611;-73
2022/10/20 23:34:31;;;;;;;27.30;14.50;;;;;;;2.57;87.86;99189.55;214417;1310;22516;-72
2022/10/20 23:39:38;;;;;;;28.80;14.30;;;;;;;2.61;87.94;99176.67;214698;1304;23836;-73